Time;durP1;ratioP1;P1;durP2;ratioP2;P2;SDS_P1;SDS_P2;PMS_P1;PMS_P2;Temp;Humidity;BMP_temperature;BMP_pressure;BME280_temperature;BME280_humidity;BME280_pressure;Samples;Min_cycle;Max_cycle;Signal;HPM_P1;HPM_P2
2023/04/06 00:01:07;;;;;;;;;;;2.90;99.90;;;;;;5049212;28;19948;-61
2023/04/06 00:03:34;;;;;;;;;;;3.00;99.90;;;;;;5049512;28;19943;-61
2023/04/06 00:06:00;;;;;;;;;;;3.00;99.90;;;;;;5053266;28;19928;-62
2023/04/06 00:08:28;;;;;;;;;;;3.00;99.90;;;;;;5049357;28;19947;-61
2023/04/06 00:10:54;;;;;;;;;;;2.90;99.90;;;;;;5045582;28;19921;-62
2023/04/06 00:13:21;;;;;;;;;;;2.90;99.90;;;;;;5049298;28;19936;-61
2023/04/06 00:15:49;;;;;;;;;;;2.90;99.90;;;;;;5045331;28;19928;-60
2023/04/06 00:18:16;;;;;;;;;;;2.90;99.90;;;;;;5049323;28;19928;-60
2023/04/06 00:20:42;;;;;;;;;;;2.90;99.90;;;;;;5052722;28;19963;-60
2023/04/06 00:23:09;;;;;;;;;;;2.90;99.90;;;;;;5051324;28;19921;-60
2023/04/06 00:25:35;;;;;;;;;;;2.80;99.90;;;;;;5049603;28;19928;-62
2023/04/06 00:28:03;;;;;;;;;;;2.90;99.90;;;;;;5041985;28;19921;-62
2023/04/06 00:30:30;;;;;;;;;;;2.90;99.90;;;;;;5048766;28;20379;-61
2023/04/06 00:32:57;;;;;;;;;;;2.90;99.90;;;;;;5049337;28;19935;-62
2023/04/06 00:35:24;;;;;;;;;;;2.90;99.90;;;;;;5052952;28;19924;-62
2023/04/06 00:37:51;;;;;;;;;;;2.90;99.90;;;;;;5049027;28;20015;-61
2023/04/06 00:40:17;;;;;;;;;;;2.90;99.90;;;;;;5049715;28;19932;-63
2023/04/06 00:42:44;;;;;;;;;;;2.80;99.90;;;;;;5050890;28;19921;-61
2023/04/06 00:45:11;;;;;;;;;;;2.80;99.90;;;;;;5048103;28;20393;-62
2023/04/06 00:47:37;;;;;;;;;;;2.80;99.90;;;;;;5049125;28;19947;-61
2023/04/06 00:50:06;;;;;;;;;;;2.80;99.90;;;;;;5052875;28;19924;-62
2023/04/06 00:52:34;;;;;;;;;;;2.80;99.90;;;;;;5050499;28;19987;-61
2023/04/06 00:55:00;;;;;;;;;;;2.80;99.90;;;;;;5050497;28;19921;-61
2023/04/06 00:57:27;;;;;;;;;;;2.80;99.90;;;;;;5049119;28;19932;-61
2023/04/06 00:59:54;;;;;;;;;;;2.90;99.90;;;;;;5048114;28;19928;-61
2023/04/06 01:02:21;;;;;;;;;;;2.90;99.90;;;;;;5050002;28;20658;-61
2023/04/06 01:04:48;;;;;;;;;;;2.90;99.90;;;;;;5048255;28;19924;-61
2023/04/06 02:48:23;;;;;;;;;;;2.50;1.00;;;;;;5048048;28;19916;-62
2023/04/06 02:50:49;;;;;;;;;;;2.50;1.00;;;;;;5050770;28;19920;-61
2023/04/06 02:53:16;;;;;;;;;;;2.50;1.00;;;;;;5054792;28;20330;-61
2023/04/06 02:55:42;;;;;;;;;;;2.50;1.00;;;;;;5051077;28;19936;-62
2023/04/06 02:58:09;;;;;;;;;;;2.50;1.00;;;;;;5054235;28;19990;-61
2023/04/06 03:00:35;;;;;;;;;;;2.50;1.00;;;;;;5049563;28;19975;-61
2023/04/06 03:03:02;;;;;;;;;;;2.50;1.00;;;;;;5054537;28;19920;-62
2023/04/06 03:05:30;;;;;;;;;;;2.40;1.00;;;;;;5051290;28;20345;-62
2023/04/06 03:07:57;;;;;;;;;;;2.50;1.00;;;;;;5054145;28;19928;-63
2023/04/06 03:10:23;;;;;;;;;;;2.40;1.00;;;;;;5051002;28;19967;-63
2023/04/06 03:12:50;;;;;;;;;;;2.40;1.00;;;;;;5049920;28;20379;-59
2023/04/06 03:15:16;;;;;;;;;;;2.40;1.00;;;;;;5049652;28;19920;-61
2023/04/06 03:17:43;;;;;;;;;;;2.30;1.00;;;;;;5050026;28;19946;-62
2023/04/06 03:20:09;;;;;;;;;;;2.30;1.00;;;;;;5053921;28;20249;-61
2023/04/06 03:22:37;;;;;;;;;;;2.30;1.00;;;;;;5053400;28;19974;-61
2023/04/06 03:25:04;;;;;;;;;;;2.30;1.00;;;;;;5053946;28;19921;-62
2023/04/06 03:27:31;;;;;;;;;;;2.30;1.00;;;;;;5051756;28;19921;-62
2023/04/06 03:29:57;;;;;;;;;;;2.30;1.00;;;;;;5049950;28;20345;-62
2023/04/06 03:32:24;;;;;;;;;;;2.30;1.00;;;;;;5052121;28;19971;-62
2023/04/06 03:34:50;;;;;;;;;;;2.20;1.00;;;;;;5053740;28;19925;-61
2023/04/06 03:37:17;;;;;;;;;;;2.10;1.00;;;;;;5051947;28;19986;-60
2023/04/06 03:39:45;;;;;;;;;;;2.10;1.00;;;;;;5049081;28;19921;-62
2023/04/06 03:42:11;;;;;;;;;;;2.10;1.00;;;;;;5057738;28;20418;-62
2023/04/06 03:44:38;;;;;;;;;;;2.10;1.00;;;;;;5045349;28;19921;-62
2023/04/06 03:47:04;;;;;;;;;;;2.10;1.00;;;;;;5053151;28;19946;-62
2023/04/06 03:49:31;;;;;;;;;;;2.10;1.00;;;;;;5049642;28;19922;-61
2023/04/06 03:51:57;;;;;;;;;;;2.10;1.00;;;;;;5053644;28;19927;-61
2023/04/06 03:54:24;;;;;;;;;;;2.10;1.00;;;;;;5048063;28;20334;-62
2023/04/06 03:56:52;;;;;;;;;;;2.10;1.00;;;;;;5052585;28;19920;-62
2023/04/06 03:59:19;;;;;;;;;;;2.10;1.00;;;;;;5049593;28;20283;-61
2023/04/06 04:01:45;;;;;;;;;;;2.10;1.00;;;;;;5052046;28;20047;-61
2023/04/06 04:04:12;;;;;;;;;;;2.10;1.00;;;;;;5048865;28;19921;-62
2023/04/06 04:06:38;;;;;;;;;;;2.10;1.00;;;;;;5053201;28;19921;-62
2023/04/06 04:09:05;;;;;;;;;;;2.10;1.00;;;;;;5047529;28;20290;-62
2023/04/06 04:11:31;;;;;;;;;;;2.10;1.00;;;;;;5050165;28;19967;-59
2023/04/06 04:13:59;;;;;;;;;;;2.20;1.00;;;;;;5047612;28;19920;-61
2023/04/06 04:16:25;;;;;;;;;;;2.10;1.00;;;;;;5046059;28;19970;-61
2023/04/06 04:18:52;;;;;;;;;;;2.10;1.00;;;;;;5053251;28;19921;-57
2023/04/06 04:21:18;;;;;;;;;;;2.10;1.00;;;;;;5053064;28;19921;-62
2023/04/06 04:23:45;;;;;;;;;;;2.10;1.00;;;;;;5052295;28;19975;-61
2023/04/06 04:26:11;;;;;;;;;;;2.10;1.00;;;;;;5047322;28;19920;-61
2023/04/06 04:28:38;;;;;;;;;;;2.10;1.00;;;;;;5045044;28;19924;-62
2023/04/06 04:31:06;;;;;;;;;;;2.20;1.00;;;;;;5048437;28;19921;-63
2023/04/06 04:33:32;;;;;;;;;;;2.10;1.00;;;;;;5049292;28;19920;-57
2023/04/06 04:35:59;;;;;;;;;;;2.10;1.00;;;;;;5052178;28;19928;-62
2023/04/06 04:38:25;;;;;;;;;;;2.10;1.00;;;;;;5047422;28;19943;-61
2023/04/06 04:40:52;;;;;;;;;;;2.10;1.00;;;;;;5048208;28;19924;-61
2023/04/06 04:43:18;;;;;;;;;;;2.10;1.00;;;;;;5052642;28;19924;-61
2023/04/06 04:45:45;;;;;;;;;;;2.10;1.00;;;;;;5048451;28;19921;-59
2023/04/06 04:48:12;;;;;;;;;;;2.10;1.00;;;;;;5052253;28;19920;-62
2023/04/06 04:50:39;;;;;;;;;;;2.10;1.00;;;;;;5052858;28;19994;-60
2023/04/06 04:53:05;;;;;;;;;;;2.10;1.00;;;;;;5059782;28;19925;-62
2023/04/06 04:55:32;;;;;;;;;;;2.10;1.00;;;;;;5056845;28;20355;-60
2023/04/06 04:57:59;;;;;;;;;;;2.10;1.00;;;;;;5047558;28;19920;-60
2023/04/06 05:00:25;;;;;;;;;;;2.20;1.00;;;;;;5048190;28;19943;-60
2023/04/06 05:02:52;;;;;;;;;;;2.20;1.00;;;;;;5051952;28;19967;-60
2023/04/06 05:05:20;;;;;;;;;;;2.20;1.00;;;;;;5046781;28;19932;-60
2023/04/06 05:07:46;;;;;;;;;;;2.20;1.00;;;;;;5052150;28;19921;-60
2023/04/06 05:10:13;;;;;;;;;;;2.20;1.00;;;;;;5047487;28;20264;-61
2023/04/06 05:12:39;;;;;;;;;;;2.20;1.00;;;;;;5052129;28;19954;-59
2023/04/06 05:15:06;;;;;;;;;;;2.30;1.00;;;;;;5047509;28;19924;-60
2023/04/06 05:17:34;;;;;;;;;;;2.30;1.00;;;;;;5052018;28;20322;-58
2023/04/06 05:20:01;;;;;;;;;;;2.30;1.00;;;;;;5044199;28;19931;-59
2023/04/06 05:22:28;;;;;;;;;;;2.40;1.00;;;;;;5052189;28;19921;-59
2023/04/06 05:24:55;;;;;;;;;;;2.40;1.00;;;;;;5050977;28;19967;-62
2023/04/06 05:27:21;;;;;;;;;;;2.50;1.00;;;;;;5051461;28;19921;-59
2023/04/06 05:29:48;;;;;;;;;;;2.60;99.90;;;;;;5047162;28;20287;-61
2023/04/06 05:32:16;;;;;;;;;;;2.60;99.90;;;;;;5048447;28;19966;-62
2023/04/06 05:34:43;;;;;;;;;;;2.70;99.90;;;;;;5048898;28;19921;-59
2023/04/06 05:37:09;;;;;;;;;;;2.70;99.90;;;;;;5061581;28;19920;-63
2023/04/06 05:39:37;;;;;;;;;;;2.80;99.90;;;;;;5061720;28;19921;-63
2023/04/06 05:42:05;;;;;;;;;;;2.80;99.90;;;;;;5051634;28;19943;-62
2023/04/06 05:44:31;;;;;;;;;;;2.90;99.90;;;;;;5051639;28;20346;-61
2023/04/06 05:46:58;;;;;;;;;;;2.90;99.90;;;;;;5054929;28;19920;-61
2023/04/06 05:49:25;;;;;;;;;;;2.90;99.90;;;;;;5051267;28;20000;-61
2023/04/06 05:51:51;;;;;;;;;;;3.00;99.90;;;;;;5055709;28;19920;-63
2023/04/06 05:54:18;;;;;;;;;;;3.00;99.90;;;;;;5051140;28;19971;-62
2023/04/06 05:56:46;;;;;;;;;;;3.10;99.90;;;;;;5053076;28;19925;-63
2023/04/06 05:59:12;;;;;;;;;;;3.20;99.90;;;;;;5053915;28;19994;-63
2023/04/06 06:01:39;;;;;;;;;;;3.20;99.90;;;;;;5052790;28;19966;-63
2023/04/06 06:04:05;;;;;;;;;;;3.30;99.90;;;;;;5053477;28;19925;-63
2023/04/06 06:06:32;;;;;;;;;;;3.40;99.90;;;;;;5051279;28;20379;-62
2023/04/06 06:09:00;;;;;;;;;;;3.50;99.90;;;;;;5054601;28;19962;-62
2023/04/06 06:11:27;;;;;;;;;;;3.60;99.90;;;;;;5051712;28;19921;-63
2023/04/06 06:13:54;;;;;;;;;;;3.70;99.90;;;;;;5055232;28;19920;-61
2023/04/06 06:16:21;;;;;;;;;;;3.80;99.90;;;;;;5050274;28;19924;-61
2023/04/06 06:18:47;;;;;;;;;;;3.90;99.90;;;;;;5052327;28;19925;-60
2023/04/06 06:21:14;;;;;;;;;;;4.00;99.90;;;;;;5049770;28;19950;-63
2023/04/06 06:23:42;;;;;;;;;;;4.10;99.90;;;;;;5055149;28;19946;-61
2023/04/06 06:26:08;;;;;;;;;;;4.10;99.90;;;;;;5050037;28;19975;-60
2023/04/06 06:28:36;;;;;;;;;;;4.20;99.90;;;;;;5056942;28;19928;-61
2023/04/06 06:31:03;;;;;;;;;;;4.30;99.90;;;;;;5050956;28;20406;-63
2023/04/06 06:33:30;;;;;;;;;;;4.50;99.90;;;;;;5055538;28;19924;-62
2023/04/06 06:35:56;;;;;;;;;;;4.60;99.90;;;;;;5050668;28;19925;-62
2023/04/06 06:38:23;;;;;;;;;;;4.70;99.90;;;;;;5054736;28;20010;-63
2023/04/06 06:40:49;;;;;;;;;;;4.80;99.90;;;;;;5050623;28;19920;-62
2023/04/06 06:43:16;;;;;;;;;;;4.90;99.90;;;;;;5054812;28;19920;-62
2023/04/06 06:45:42;;;;;;;;;;;4.90;99.90;;;;;;5049453;28;19921;-63
2023/04/06 06:48:10;;;;;;;;;;;5.00;99.90;;;;;;5054113;28;19923;-63
2023/04/06 06:50:37;;;;;;;;;;;5.10;99.90;;;;;;5047452;28;19950;-63
2023/04/06 06:53:04;;;;;;;;;;;5.20;99.90;;;;;;5046990;28;19921;-62
2023/04/06 06:55:30;;;;;;;;;;;5.30;99.90;;;;;;5049668;28;19931;-59
2023/04/06 06:57:57;;;;;;;;;;;5.40;99.90;;;;;;5053829;28;19932;-63
2023/04/06 07:00:23;;;;;;;;;;;5.40;99.90;;;;;;5046540;28;19920;-61
2023/04/06 07:02:50;;;;;;;;;;;5.50;99.90;;;;;;5052655;28;19920;-65
2023/04/06 07:05:18;;;;;;;;;;;5.60;99.90;;;;;;5044291;28;20023;-66
2023/04/06 07:07:44;;;;;;;;;;;5.70;99.90;;;;;;5049623;28;19988;-66
2023/04/06 07:10:11;;;;;;;;;;;5.80;99.90;;;;;;5049628;28;19967;-65
2023/04/06 07:12:37;;;;;;;;;;;5.90;99.90;;;;;;5053158;28;20407;-63
2023/04/06 07:15:04;;;;;;;;;;;6.00;99.90;;;;;;5049911;28;19943;-64
2023/04/06 07:17:31;;;;;;;;;;;6.10;99.90;;;;;;5048448;28;19920;-64
2023/04/06 07:19:57;;;;;;;;;;;6.10;99.90;;;;;;5049096;28;19924;-64
2023/04/06 07:22:25;;;;;;;;;;;6.30;99.90;;;;;;5052261;28;19921;-65
2023/04/06 07:24:52;;;;;;;;;;;6.40;99.90;;;;;;5051866;28;19970;-64
2023/04/06 07:27:18;;;;;;;;;;;6.50;99.90;;;;;;5047817;28;20268;-65
2023/04/06 07:29:45;;;;;;;;;;;6.70;99.90;;;;;;5044871;28;20392;-64
2023/04/06 07:32:11;;;;;;;;;;;6.80;99.90;;;;;;5052195;28;19925;-64
2023/04/06 07:34:38;;;;;;;;;;;6.80;99.90;;;;;;5049627;28;19924;-62
2023/04/06 07:37:05;;;;;;;;;;;6.90;99.90;;;;;;5052447;28;19920;-65
2023/04/06 07:39:32;;;;;;;;;;;7.00;99.90;;;;;;5049925;28;19928;-63
2023/04/06 07:41:59;;;;;;;;;;;7.20;99.90;;;;;;5046807;28;20576;-65
2023/04/06 07:44:26;;;;;;;;;;;7.30;99.90;;;;;;5048306;28;19921;-65
2023/04/06 07:46:52;;;;;;;;;;;7.40;99.90;;;;;;5051977;28;19986;-65
2023/04/06 07:49:20;;;;;;;;;;;7.50;99.90;;;;;;5048155;28;19921;-64
2023/04/06 07:51:47;;;;;;;;;;;7.70;99.90;;;;;;5053267;28;20290;-65
2023/04/06 07:54:13;;;;;;;;;;;7.80;99.90;;;;;;5051341;28;19920;-65
2023/04/06 07:56:41;;;;;;;;;;;7.80;99.90;;;;;;5049256;28;19975;-64
2023/04/06 07:59:07;;;;;;;;;;;7.90;99.90;;;;;;5045897;28;19920;-63
2023/04/06 08:01:34;;;;;;;;;;;8.00;99.90;;;;;;5050947;28;19924;-63
2023/04/06 08:04:02;;;;;;;;;;;8.20;99.90;;;;;;5046859;28;19924;-63
2023/04/06 08:06:28;;;;;;;;;;;8.30;99.90;;;;;;5049342;28;19927;-64
2023/04/06 08:08:55;;;;;;;;;;;8.40;99.90;;;;;;5050400;28;19925;-66
2023/04/06 08:11:21;;;;;;;;;;;8.40;99.90;;;;;;5049560;28;19924;-66
2023/04/06 08:13:49;;;;;;;;;;;8.60;99.90;;;;;;5047296;28;19925;-67
2023/04/06 08:16:15;;;;;;;;;;;8.80;99.90;;;;;;5043589;28;19920;-68
2023/04/06 08:18:42;;;;;;;;;;;9.00;99.90;;;;;;5051353;28;19944;-64
2023/04/06 08:21:08;;;;;;;;;;;9.20;99.90;;;;;;5053634;28;19979;-65
2023/04/06 08:23:35;;;;;;;;;;;9.30;99.90;;;;;;5052194;28;19920;-63
2023/04/06 08:26:01;;;;;;;;;;;9.50;99.90;;;;;;5050961;28;19925;-66
2023/04/06 08:28:28;;;;;;;;;;;9.70;99.90;;;;;;5053184;28;20330;-65
2023/04/06 08:30:56;;;;;;;;;;;9.90;99.90;;;;;;5049478;28;19967;-64
2023/04/06 08:33:22;;;;;;;;;;;10.20;99.90;;;;;;5044914;28;19928;-64
2023/04/06 08:35:49;;;;;;;;;;;10.40;99.90;;;;;;5058018;28;20042;-65
2023/04/06 08:38:15;;;;;;;;;;;10.30;99.90;;;;;;5048910;28;19924;-66
2023/04/06 08:40:44;;;;;;;;;;;10.20;99.90;;;;;;5049157;28;19925;-65
2023/04/06 08:43:13;;;;;;;;;;;10.10;99.90;;;;;;5048547;28;19958;-66
2023/04/06 08:45:41;;;;;;;;;;;10.00;99.90;;;;;;5044271;28;19921;-65
2023/04/06 08:48:09;;;;;;;;;;;10.00;99.90;;;;;;5048652;28;19928;-65
2023/04/06 08:50:36;;;;;;;;;;;10.20;99.90;;;;;;5047090;28;20028;-65
2023/04/06 08:53:03;;;;;;;;;;;10.40;99.90;;;;;;5050165;28;19925;-66
2023/04/06 08:55:30;;;;;;;;;;;10.60;99.90;;;;;;5050717;28;19920;-66
2023/04/06 08:57:57;;;;;;;;;;;10.80;99.90;;;;;;5047934;28;19921;-65
2023/04/06 09:00:25;;;;;;;;;;;10.80;99.90;;;;;;5045685;28;19966;-66
2023/04/06 09:02:54;;;;;;;;;;;10.80;99.90;;;;;;5046418;28;19924;-67
2023/04/06 09:05:24;;;;;;;;;;;10.90;99.90;;;;;;5052808;28;20341;-69
2023/04/06 09:07:51;;;;;;;;;;;10.90;99.90;;;;;;5048616;28;19944;-70
2023/04/06 09:10:18;;;;;;;;;;;10.90;99.90;;;;;;5054837;28;19921;-67
2023/04/06 09:12:45;;;;;;;;;;;10.80;99.90;;;;;;5052847;28;20338;-68
2023/04/06 09:15:19;;;;;;;;;;;11.10;99.90;;;;;;5046203;28;19931;-67
2023/04/06 09:17:46;;;;;;;;;;;11.00;99.90;;;;;;5049160;28;19928;-63
2023/04/06 09:20:12;;;;;;;;;;;11.00;99.90;;;;;;5060969;28;20015;-63
2023/04/06 09:22:41;;;;;;;;;;;10.90;99.90;;;;;;5051420;28;19928;-65
2023/04/06 09:25:09;;;;;;;;;;;11.00;99.90;;;;;;5049240;28;19925;-65
2023/04/06 09:27:36;;;;;;;;;;;11.00;99.90;;;;;;5046247;28;19921;-65
2023/04/06 09:30:04;;;;;;;;;;;11.10;99.90;;;;;;5046706;28;19920;-65
2023/04/06 09:32:30;;;;;;;;;;;11.10;99.90;;;;;;5048474;28;19979;-64
2023/04/06 09:35:06;;;;;;;;;;;11.30;99.90;;;;;;5047448;28;20376;-65
2023/04/06 09:37:32;;;;;;;;;;;11.40;99.90;;;;;;5047946;28;20403;-64
2023/04/06 09:40:05;;;;;;;;;;;11.40;99.90;;;;;;5047090;28;19921;-65
2023/04/06 09:42:31;;;;;;;;;;;11.50;99.90;;;;;;5048181;28;19929;-65
2023/04/06 09:44:58;;;;;;;;;;;11.50;99.90;;;;;;5043926;28;19920;-65
2023/04/06 09:47:26;;;;;;;;;;;11.70;99.90;;;;;;5048801;28;20382;-63
2023/04/06 09:49:57;;;;;;;;;;;11.70;99.90;;;;;;5047372;28;19925;-65
2023/04/06 09:52:25;;;;;;;;;;;12.00;99.90;;;;;;5051084;28;19921;-65
2023/04/06 09:54:51;;;;;;;;;;;12.10;99.90;;;;;;5046377;28;19979;-64
2023/04/06 09:57:23;;;;;;;;;;;12.30;99.90;;;;;;5049760;28;20338;-66
2023/04/06 09:59:53;;;;;;;;;;;12.50;99.90;;;;;;5042442;28;20368;-65
2023/04/06 10:02:25;;;;;;;;;;;12.60;99.90;;;;;;5041017;28;19925;-64
2023/04/06 10:04:56;;;;;;;;;;;12.60;99.90;;;;;;5050360;28;19975;-65
2023/04/06 10:07:22;;;;;;;;;;;12.70;99.90;;;;;;5050590;28;19924;-65
2023/04/06 10:09:49;;;;;;;;;;;12.40;99.90;;;;;;5047777;28;19921;-65
2023/04/06 10:12:16;;;;;;;;;;;12.40;99.90;;;;;;5050427;28;20349;-64
2023/04/06 10:14:45;;;;;;;;;;;12.50;99.90;;;;;;5038166;28;19929;-65
2023/04/06 10:17:12;;;;;;;;;;;12.50;99.90;;;;;;5050517;28;19921;-66
2023/04/06 10:19:42;;;;;;;;;;;12.40;99.90;;;;;;5046943;28;19927;-65
2023/04/06 10:22:09;;;;;;;;;;;12.50;99.90;;;;;;5047990;28;19920;-66
2023/04/06 10:24:36;;;;;;;;;;;12.80;99.90;;;;;;5048120;28;19976;-65
2023/04/06 10:27:03;;;;;;;;;;;12.80;99.90;;;;;;5051020;28;20349;-64
2023/04/06 10:29:41;;;;;;;;;;;12.80;99.90;;;;;;5047317;28;19967;-66
2023/04/06 10:32:09;;;;;;;;;;;12.90;99.90;;;;;;5051126;28;19978;-66
2023/04/06 10:34:36;;;;;;;;;;;13.10;99.90;;;;;;5048939;28;20407;-66
2023/04/06 10:37:11;;;;;;;;;;;12.80;99.90;;;;;;5053804;28;20387;-67
2023/04/06 10:39:46;;;;;;;;;;;12.80;99.90;;;;;;5049490;28;19924;-67
2023/04/06 10:42:12;;;;;;;;;;;12.90;99.90;;;;;;5051994;28;19925;-65
2023/04/06 10:44:43;;;;;;;;;;;12.70;99.90;;;;;;5040987;28;19967;-65
2023/04/06 10:47:16;;;;;;;;;;;12.90;99.90;;;;;;5054162;28;19927;-66
2023/04/06 10:49:42;;;;;;;;;;;13.10;99.90;;;;;;5054000;28;19924;-70
2023/04/06 10:52:09;;;;;;;;;;;13.20;99.90;;;;;;5052754;28;19927;-70
2023/04/06 10:54:41;;;;;;;;;;;13.30;99.90;;;;;;5049977;28;19921;-72
2023/04/06 10:57:08;;;;;;;;;;;13.40;99.90;;;;;;5053467;28;19925;-72
2023/04/06 10:59:34;;;;;;;;;;;13.50;99.90;;;;;;5046154;28;19952;-69
2023/04/06 11:02:01;;;;;;;;;;;13.80;99.90;;;;;;5053768;28;20280;-70
2023/04/06 11:04:29;;;;;;;;;;;13.70;99.90;;;;;;5049106;28;19970;-69
2023/04/06 11:06:55;;;;;;;;;;;13.80;99.90;;;;;;5053322;28;19924;-70
2023/04/06 11:09:26;;;;;;;;;;;14.00;99.90;;;;;;5046382;28;19920;-69
2023/04/06 11:11:53;;;;;;;;;;;13.70;99.90;;;;;;5053190;28;19924;-69
2023/04/06 11:14:20;;;;;;;;;;;13.90;99.90;;;;;;5045586;28;19932;-69
2023/04/06 11:16:47;;;;;;;;;;;14.00;99.90;;;;;;5047722;28;20331;-69
2023/04/06 11:19:13;;;;;;;;;;;14.20;99.90;;;;;;5046227;28;20380;-70
2023/04/06 11:21:43;;;;;;;;;;;14.20;99.90;;;;;;5052613;28;20382;-69
2023/04/06 11:24:10;;;;;;;;;;;14.10;99.90;;;;;;5052900;28;19920;-72
2023/04/06 11:26:40;;;;;;;;;;;14.00;99.90;;;;;;5048474;28;19931;-74
2023/04/06 11:29:07;;;;;;;;;;;14.00;99.90;;;;;;5048700;28;19924;-73
2023/04/06 11:31:38;;;;;;;;;;;13.90;99.90;;;;;;5049433;28;19928;-69
2023/04/06 11:34:09;;;;;;;;;;;14.10;99.90;;;;;;5052377;28;19920;-74
2023/04/06 11:36:36;;;;;;;;;;;14.30;99.90;;;;;;5046958;28;19927;-73
2023/04/06 11:39:04;;;;;;;;;;;13.80;99.90;;;;;;5048801;28;19936;-72
2023/04/06 11:41:33;;;;;;;;;;;13.70;99.90;;;;;;5051345;28;19925;-73
2023/04/06 11:44:01;;;;;;;;;;;13.60;99.90;;;;;;5052049;28;19986;-74
2023/04/06 11:46:28;;;;;;;;;;;13.60;99.90;;;;;;5050126;28;20322;-75
2023/04/06 11:48:58;;;;;;;;;;;13.70;99.90;;;;;;5053005;28;19921;-70
2023/04/06 11:51:26;;;;;;;;;;;13.80;99.90;;;;;;5047538;28;20366;-67
2023/04/06 11:53:52;;;;;;;;;;;13.70;99.90;;;;;;5052542;28;20640;-67
2023/04/06 11:56:30;;;;;;;;;;;13.50;99.90;;;;;;5048142;28;19921;-69
2023/04/06 11:58:57;;;;;;;;;;;13.80;99.90;;;;;;5048372;28;19929;-68
2023/04/06 12:01:24;;;;;;;;;;;13.90;99.90;;;;;;5050192;28;19921;-68
2023/04/06 12:03:51;;;;;;;;;;;13.90;99.90;;;;;;5052656;28;19920;-69
2023/04/06 12:06:18;;;;;;;;;;;13.90;99.90;;;;;;5044567;28;19920;-65
2023/04/06 12:08:45;;;;;;;;;;;13.60;99.90;;;;;;5052919;28;19927;-66
2023/04/06 12:11:12;;;;;;;;;;;13.70;99.90;;;;;;5045241;28;19921;-64
2023/04/06 12:13:39;;;;;;;;;;;13.90;99.90;;;;;;5051727;28;20363;-63
2023/04/06 12:16:06;;;;;;;;;;;14.00;99.90;;;;;;5045001;28;19927;-62
2023/04/06 12:18:33;;;;;;;;;;;13.70;99.90;;;;;;5050780;28;20413;-66
2023/04/06 12:20:59;;;;;;;;;;;13.80;99.90;;;;;;5048234;28;19951;-64
2023/04/06 12:23:26;;;;;;;;;;;13.80;99.90;;;;;;5048749;28;20023;-65
2023/04/06 12:25:54;;;;;;;;;;;13.80;99.90;;;;;;5051393;28;19920;-64
2023/04/06 12:28:22;;;;;;;;;;;13.90;99.90;;;;;;5046931;28;19996;-64
2023/04/06 12:30:51;;;;;;;;;;;13.90;99.90;;;;;;5042228;28;19958;-64
2023/04/06 12:33:18;;;;;;;;;;;13.90;99.90;;;;;;5052012;28;19921;-66
2023/04/06 12:35:44;;;;;;;;;;;13.80;99.90;;;;;;5047818;28;20432;-64
2023/04/06 12:38:11;;;;;;;;;;;13.80;99.90;;;;;;5039762;28;19929;-63
2023/04/06 12:40:38;;;;;;;;;;;13.60;99.90;;;;;;5049489;28;20375;-65
2023/04/06 12:43:05;;;;;;;;;;;13.30;99.90;;;;;;5051863;28;19974;-64
2023/04/06 12:45:32;;;;;;;;;;;13.60;99.90;;;;;;5047966;28;19920;-64
2023/04/06 12:48:00;;;;;;;;;;;13.70;99.90;;;;;;5051761;28;20341;-65
2023/04/06 12:50:27;;;;;;;;;;;13.60;99.90;;;;;;5045492;28;19975;-66
2023/04/06 12:52:53;;;;;;;;;;;13.70;99.90;;;;;;5051026;28;19932;-63
2023/04/06 12:55:21;;;;;;;;;;;13.60;99.90;;;;;;5058381;28;19921;-65
2023/04/06 12:57:48;;;;;;;;;;;13.70;99.90;;;;;;5059526;28;20387;-65
2023/04/06 13:00:14;;;;;;;;;;;13.80;99.90;;;;;;5043417;28;20364;-63
2023/04/06 13:02:46;;;;;;;;;;;14.00;99.90;;;;;;5047672;28;20730;-63
2023/04/06 13:05:18;;;;;;;;;;;14.10;99.90;;;;;;5051147;28;19998;-66
2023/04/06 13:07:44;;;;;;;;;;;14.00;99.90;;;;;;5048304;28;20018;-66
2023/04/06 13:10:11;;;;;;;;;;;13.60;99.90;;;;;;5045729;28;20345;-63
2023/04/06 13:12:37;;;;;;;;;;;13.60;99.90;;;;;;5046452;28;19920;-63
2023/04/06 13:15:04;;;;;;;;;;;13.70;99.90;;;;;;5047388;28;19947;-63
2023/04/06 13:17:31;;;;;;;;;;;13.60;99.90;;;;;;5050799;28;19921;-64
2023/04/06 13:19:57;;;;;;;;;;;13.30;99.90;;;;;;5042918;28;19924;-64
2023/04/06 13:22:25;;;;;;;;;;;13.30;99.90;;;;;;5051939;28;19974;-67
2023/04/06 13:24:52;;;;;;;;;;;13.40;99.90;;;;;;5047585;28;19995;-67
2023/04/06 13:27:19;;;;;;;;;;;13.50;99.90;;;;;;5051657;28;19943;-66
2023/04/06 13:29:45;;;;;;;;;;;13.40;99.90;;;;;;5040785;28;20050;-64
2023/04/06 13:32:12;;;;;;;;;;;13.40;99.90;;;;;;5051609;28;19920;-66
2023/04/06 13:34:40;;;;;;;;;;;13.30;99.90;;;;;;5046198;28;20016;-65
2023/04/06 13:37:06;;;;;;;;;;;13.40;99.90;;;;;;5050938;28;19927;-64
2023/04/06 13:39:34;;;;;;;;;;;13.50;99.90;;;;;;5037103;28;19921;-66
2023/04/06 13:42:01;;;;;;;;;;;13.40;99.90;;;;;;5050762;28;19920;-65
2023/04/06 13:44:28;;;;;;;;;;;13.30;99.90;;;;;;5045860;28;20012;-65
2023/04/06 13:46:55;;;;;;;;;;;13.40;99.90;;;;;;5047002;28;19920;-66
2023/04/06 13:49:21;;;;;;;;;;;13.20;99.90;;;;;;5048581;28;20460;-67
2023/04/06 13:51:48;;;;;;;;;;;13.20;99.90;;;;;;5049583;28;19920;-66
2023/04/06 13:54:14;;;;;;;;;;;13.00;99.90;;;;;;5049973;28;19924;-66
2023/04/06 13:56:42;;;;;;;;;;;12.80;99.90;;;;;;5047902;28;19920;-64
2023/04/06 13:59:09;;;;;;;;;;;12.90;99.90;;;;;;5042938;28;19928;-63
2023/04/06 14:01:35;;;;;;;;;;;12.90;99.90;;;;;;5052679;28;20294;-65
2023/04/06 14:04:02;;;;;;;;;;;12.60;99.90;;;;;;5052160;28;19928;-63
2023/04/06 14:06:29;;;;;;;;;;;12.70;99.90;;;;;;5051156;28;20327;-61
2023/04/06 14:08:56;;;;;;;;;;;12.70;99.90;;;;;;5053673;28;20012;-64
2023/04/06 14:11:23;;;;;;;;;;;12.60;99.90;;;;;;5053611;28;19925;-64
2023/04/06 14:13:51;;;;;;;;;;;12.20;99.90;;;;;;5049204;28;19921;-65
2023/04/06 14:16:19;;;;;;;;;;;12.40;99.90;;;;;;5049281;28;19920;-63
2023/04/06 14:18:45;;;;;;;;;;;12.40;99.90;;;;;;5048604;28;19920;-62
2023/04/06 14:21:12;;;;;;;;;;;12.40;99.90;;;;;;5053279;28;19921;-65
2023/04/06 14:23:39;;;;;;;;;;;12.40;99.90;;;;;;5052190;28;19921;-66
2023/04/06 14:26:06;;;;;;;;;;;12.50;99.90;;;;;;5050500;28;19922;-61
2023/04/06 14:28:33;;;;;;;;;;;12.30;99.90;;;;;;5046061;28;19928;-61
2023/04/06 14:31:02;;;;;;;;;;;12.40;99.90;;;;;;5053885;28;19921;-67
2023/04/06 14:33:30;;;;;;;;;;;12.20;99.90;;;;;;5050301;28;20344;-64
2023/04/06 14:35:57;;;;;;;;;;;12.20;99.90;;;;;;5054274;28;20367;-64
2023/04/06 14:38:23;;;;;;;;;;;11.70;99.90;;;;;;5050351;28;19921;-64
2023/04/06 14:40:50;;;;;;;;;;;11.80;99.90;;;;;;5044879;28;19974;-63
2023/04/06 14:43:16;;;;;;;;;;;11.60;99.90;;;;;;5050091;28;19924;-64
2023/04/06 14:45:43;;;;;;;;;;;11.60;99.90;;;;;;5050711;28;19924;-64
2023/04/06 14:48:11;;;;;;;;;;;11.70;99.90;;;;;;5050703;28;19924;-64
2023/04/06 14:50:38;;;;;;;;;;;11.70;99.90;;;;;;5053758;28;19920;-64
2023/04/06 14:53:05;;;;;;;;;;;11.50;99.90;;;;;;5049416;28;19925;-64
2023/04/06 14:55:31;;;;;;;;;;;11.50;99.90;;;;;;5054054;28;19924;-64
2023/04/06 14:57:58;;;;;;;;;;;11.50;99.90;;;;;;5047439;28;19920;-63
2023/04/06 15:00:24;;;;;;;;;;;11.30;99.90;;;;;;5050293;28;19924;-64
2023/04/06 15:02:51;;;;;;;;;;;11.20;99.90;;;;;;5047760;28;19921;-64
2023/04/06 15:05:19;;;;;;;;;;;11.20;99.90;;;;;;5054568;28;20413;-64
2023/04/06 15:07:45;;;;;;;;;;;11.00;99.90;;;;;;5047423;28;20493;-64
2023/04/06 15:10:12;;;;;;;;;;;11.00;99.90;;;;;;5045937;28;19929;-64
2023/04/06 15:12:38;;;;;;;;;;;11.00;99.90;;;;;;5047623;28;20372;-62
2023/04/06 15:15:05;;;;;;;;;;;10.90;99.90;;;;;;5049194;28;19978;-63
2023/04/06 15:17:32;;;;;;;;;;;10.80;99.90;;;;;;5050370;28;20478;-63
2023/04/06 15:19:58;;;;;;;;;;;10.80;99.90;;;;;;5053943;28;19971;-63
2023/04/06 15:22:26;;;;;;;;;;;10.90;99.90;;;;;;5046336;28;19978;-63
2023/04/06 15:24:53;;;;;;;;;;;10.80;99.90;;;;;;5053907;28;20329;-63
2023/04/06 15:27:20;;;;;;;;;;;10.80;99.90;;;;;;5052516;28;19974;-63
2023/04/06 15:29:47;;;;;;;;;;;10.80;99.90;;;;;;5045797;28;19921;-63
2023/04/06 15:32:13;;;;;;;;;;;10.90;99.90;;;;;;5050649;28;19921;-63
2023/04/06 15:34:40;;;;;;;;;;;11.00;99.90;;;;;;5053067;28;19921;-63
2023/04/06 15:37:06;;;;;;;;;;;10.80;99.90;;;;;;5049527;28;20331;-63
2023/04/06 15:39:36;;;;;;;;;;;10.70;99.90;;;;;;5051955;28;20011;-63
2023/04/06 15:42:02;;;;;;;;;;;10.60;99.90;;;;;;5040433;28;19950;-71
2023/04/06 15:44:29;;;;;;;;;;;10.50;99.90;;;;;;5042435;28;19968;-61
2023/04/06 15:46:55;;;;;;;;;;;10.50;99.90;;;;;;5049770;28;20437;-61
2023/04/06 15:49:22;;;;;;;;;;;10.50;99.90;;;;;;5052717;28;19975;-61
2023/04/06 15:51:49;;;;;;;;;;;10.40;99.90;;;;;;5051602;28;20429;-61
2023/04/06 15:54:16;;;;;;;;;;;10.50;99.90;;;;;;5047594;28;19929;-63
2023/04/06 15:56:44;;;;;;;;;;;10.50;99.90;;;;;;5049920;28;19996;-62
2023/04/06 15:59:11;;;;;;;;;;;10.50;99.90;;;;;;5052800;28;20485;-56
2023/04/06 16:01:39;;;;;;;;;;;10.50;99.90;;;;;;5048309;28;19921;-61
2023/04/06 16:04:10;;;;;;;;;;;10.40;99.90;;;;;;5052901;28;20401;-60
2023/04/06 16:06:37;;;;;;;;;;;10.40;99.90;;;;;;5047266;28;19927;-60